Aérodrome :
LOGIN :

S'inscrire | Disclaimer

   EN    FR    IT 

 










Légende :    VFR   VFR Marginal   IFR   IFR Intensif   IFR Très Intensif
Visi : 
Plafond : 
>= 8 km
>= 3000ft
5 à 8 km
1000 à 3000 ft
1500m à 5 km
500 à 1000 ft
800 à 1500m
200 à 500 ft
< 800m
< 200 ft
Symboles :   Orages  Brouillard  Fortes neiges  Fortes précipitations  Vent > 20 kt
SIGMETs :   Divers  Orages  Givrage  Turbulence  Onde Orograph.  Cendres Volcan.







- Altitude de l'aérodrome : 512 ft
- Code IATA : URO
- Voir les cartes d'approche


LFOP - Rouen Vallée de Seine

DERNIER METAR :
  • 280300Z AUTO 22015KT 9999 BKN023 BKN200 03/M00 Q0991

METARs EXPIRÉS :
  • 280230Z AUTO 22017KT 9999 BKN025 BKN032 BKN068 03/M00 Q0992
  • 280200Z AUTO 22017KT 9999 SCT023 BKN029 03/M00 Q0992
  • 280130Z AUTO 22018KT 9999 SCT027 SCT032 03/M00 Q0992
  • 280100Z AUTO 22019KT 9999 FEW025 SCT110 03/M01 Q0992
  • 280030Z AUTO 22018KT 9999 SCT025 BKN030 BKN046 03/M01 Q0992

TAF TAF LFOP
Valide du 27 à 18h jusqu'au 28 à 18h UTC


271700Z 2718/2818 22020G30KT 9999 BKN020
TEMPO 2718/2804 3000 SHRA BKN008 BKN020CB
FM280500 18013KT 9999 BKN020
BECMG 2805/2807 OVC013
TEMPO 2807/2812 3000 RA BKN008 BKN013CB
BECMG 2812/2814 29017G27KT BKN020
ATIS : +33 2 35 80 80 34
Météo : +33 2 32 86 52 80
Pas de NOTAMs connus pour ce terrain.
1 SIGMET publié pour la FIR Paris (LFFF) :
 
Turbulence forte
LFFF SIGMET 11 VALID 280000/280400 LFPW
LFFF PARIS FIR/UIR SEV TURB FCST WI N4915 W00015 - N5000 W00015 - N5100 E00145 - N5015 E00200 SFC/FL060 STNR NC=



MET'MAP, la Météo Aéronautique d'un coup d'oeil ! - Copyright ORBIFLY Décembre 2007 - Disclaimer

ORBIFLY MET'MAP TEAM :

Programmation & Développement : Alexandra Zaïnal
Conception & Développement : Baudouin d'Aumeries
Co-Programmation & Développement : Marc-Olivier Méhu
Soutien technique & logistique : Manuel Goepfert

Contact : metmap@orbifly.com




SOURCES & CREDITS :

   NOAA